sensor_id;sensor_type;location;lat;lon;timestamp;P1;durP1;ratioP1;P2;durP2;ratioP2
21743;SDS011;11034;48.556;9.342;2022-09-03T00:09:14;4.05;;;1.48;;
21743;SDS011;11034;48.556;9.342;2022-09-03T00:11:51;2.25;;;1.42;;
21743;SDS011;11034;48.556;9.342;2022-09-03T00:15:23;2.47;;;1.60;;
21743;SDS011;11034;48.556;9.342;2022-09-03T00:17:54;4.03;;;1.80;;
21743;SDS011;11034;48.556;9.342;2022-09-03T00:30:49;2.47;;;1.60;;
21743;SDS011;11034;48.556;9.342;2022-09-03T00:33:54;1.63;;;1.50;;
21743;SDS011;11034;48.556;9.342;2022-09-03T05:20:35;5.18;;;2.95;;
21743;SDS011;11034;48.556;9.342;2022-09-03T05:23:03;4.28;;;2.90;;
21743;SDS011;11034;48.556;9.342;2022-09-03T05:33:36;6.90;;;3.22;;
21743;SDS011;11034;48.556;9.342;2022-09-03T06:13:55;4.15;;;2.90;;
21743;SDS011;11034;48.556;9.342;2022-09-03T06:17:08;4.53;;;2.78;;
21743;SDS011;11034;48.556;9.342;2022-09-03T06:20:01;2.60;;;2.40;;
21743;SDS011;11034;48.556;9.342;2022-09-03T06:22:50;5.40;;;3.10;;
21743;SDS011;11034;48.556;9.342;2022-09-03T06:25:20;4.28;;;2.95;;
21743;SDS011;11034;48.556;9.342;2022-09-03T06:27:59;5.28;;;2.80;;
21743;SDS011;11034;48.556;9.342;2022-09-03T06:30:28;4.03;;;2.70;;
21743;SDS011;11034;48.556;9.342;2022-09-03T06:32:57;3.92;;;2.88;;
21743;SDS011;11034;48.556;9.342;2022-09-03T06:35:53;6.18;;;3.00;;
21743;SDS011;11034;48.556;9.342;2022-09-03T06:38:28;3.25;;;2.80;;
21743;SDS011;11034;48.556;9.342;2022-09-03T06:41:05;4.53;;;2.75;;
21743;SDS011;11034;48.556;9.342;2022-09-03T06:43:36;3.75;;;2.72;;
21743;SDS011;11034;48.556;9.342;2022-09-03T06:46:09;3.65;;;2.95;;
21743;SDS011;11034;48.556;9.342;2022-09-03T06:48:46;5.18;;;2.67;;
21743;SDS011;11034;48.556;9.342;2022-09-03T06:51:21;3.55;;;3.25;;
21743;SDS011;11034;48.556;9.342;2022-09-03T06:55:04;3.08;;;2.78;;
21743;SDS011;11034;48.556;9.342;2022-09-03T06:57:34;3.30;;;2.90;;
21743;SDS011;11034;48.556;9.342;2022-09-03T07:00:14;4.15;;;2.60;;
21743;SDS011;11034;48.556;9.342;2022-09-03T07:10:51;5.15;;;2.60;;
21743;SDS011;11034;48.556;9.342;2022-09-03T07:13:39;4.53;;;3.72;;
21743;SDS011;11034;48.556;9.342;2022-09-03T07:16:16;3.30;;;2.78;;
21743;SDS011;11034;48.556;9.342;2022-09-03T07:37:45;3.75;;;2.50;;
21743;SDS011;11034;48.556;9.342;2022-09-03T07:41:28;3.58;;;2.63;;
21743;SDS011;11034;48.556;9.342;2022-09-03T08:04:25;2.90;;;2.70;;
21743;SDS011;11034;48.556;9.342;2022-09-03T08:06:53;3.00;;;2.75;;
21743;SDS011;11034;48.556;9.342;2022-09-03T08:09:32;8.35;;;5.20;;
21743;SDS011;11034;48.556;9.342;2022-09-03T08:35:53;2.90;;;2.63;;
21743;SDS011;11034;48.556;9.342;2022-09-03T08:39:26;4.22;;;2.40;;
21743;SDS011;11034;48.556;9.342;2022-09-03T08:42:02;4.15;;;2.33;;
21743;SDS011;11034;48.556;9.342;2022-09-03T08:44:52;2.85;;;2.45;;
21743;SDS011;11034;48.556;9.342;2022-09-03T08:49:12;4.05;;;2.30;;
21743;SDS011;11034;48.556;9.342;2022-09-03T08:55:15;5.78;;;2.65;;
21743;SDS011;11034;48.556;9.342;2022-09-03T08:57:47;3.72;;;2.38;;
21743;SDS011;11034;48.556;9.342;2022-09-03T09:00:18;5.10;;;2.38;;
21743;SDS011;11034;48.556;9.342;2022-09-03T09:02:49;4.30;;;2.30;;
21743;SDS011;11034;48.556;9.342;2022-09-03T09:05:23;3.67;;;2.40;;
21743;SDS011;11034;48.556;9.342;2022-09-03T09:08:00;6.30;;;2.60;;
21743;SDS011;11034;48.556;9.342;2022-09-03T09:10:39;5.28;;;2.60;;
21743;SDS011;11034;48.556;9.342;2022-09-03T09:13:12;6.78;;;2.22;;
21743;SDS011;11034;48.556;9.342;2022-09-03T09:15:51;3.35;;;2.53;;
21743;SDS011;11034;48.556;9.342;2022-09-03T09:18:31;5.40;;;2.60;;
21743;SDS011;11034;48.556;9.342;2022-09-03T09:21:14;2.97;;;2.28;;
21743;SDS011;11034;48.556;9.342;2022-09-03T09:30:25;7.53;;;2.60;;
21743;SDS011;11034;48.556;9.342;2022-09-03T09:32:55;2.90;;;2.60;;
21743;SDS011;11034;48.556;9.342;2022-09-03T09:35:25;3.65;;;2.35;;
21743;SDS011;11034;48.556;9.342;2022-09-03T09:37:57;4.32;;;2.55;;
21743;SDS011;11034;48.556;9.342;2022-09-03T09:40:48;5.20;;;2.72;;
21743;SDS011;11034;48.556;9.342;2022-09-03T09:56:44;3.88;;;1.85;;
21743;SDS011;11034;48.556;9.342;2022-09-03T09:59:14;2.35;;;1.92;;
21743;SDS011;11034;48.556;9.342;2022-09-03T10:01:47;3.55;;;2.00;;
21743;SDS011;11034;48.556;9.342;2022-09-03T10:04:20;4.35;;;2.20;;
21743;SDS011;11034;48.556;9.342;2022-09-03T10:06:57;2.58;;;2.00;;
21743;SDS011;11034;48.556;9.342;2022-09-03T10:09:30;4.85;;;2.38;;
21743;SDS011;11034;48.556;9.342;2022-09-03T10:15:11;2.40;;;2.20;;
21743;SDS011;11034;48.556;9.342;2022-09-03T10:17:51;2.75;;;2.00;;
21743;SDS011;11034;48.556;9.342;2022-09-03T10:20:33;3.53;;;2.20;;
21743;SDS011;11034;48.556;9.342;2022-09-03T10:23:12;4.43;;;2.60;;
21743;SDS011;11034;48.556;9.342;2022-09-03T10:25:53;2.38;;;2.10;;
21743;SDS011;11034;48.556;9.342;2022-09-03T10:32:38;6.28;;;3.05;;
21743;SDS011;11034;48.556;9.342;2022-09-03T10:35:21;3.28;;;2.60;;
21743;SDS011;11034;48.556;9.342;2022-09-03T10:38:07;3.08;;;2.50;;
21743;SDS011;11034;48.556;9.342;2022-09-03T10:40:43;3.22;;;2.42;;
21743;SDS011;11034;48.556;9.342;2022-09-03T10:43:25;5.57;;;2.80;;
21743;SDS011;11034;48.556;9.342;2022-09-03T10:46:09;3.70;;;2.58;;
21743;SDS011;11034;48.556;9.342;2022-09-03T10:48:53;3.90;;;2.80;;
21743;SDS011;11034;48.556;9.342;2022-09-03T10:51:38;4.07;;;2.70;;
21743;SDS011;11034;48.556;9.342;2022-09-03T10:57:14;3.97;;;2.60;;
21743;SDS011;11034;48.556;9.342;2022-09-03T10:59:57;3.13;;;2.83;;
21743;SDS011;11034;48.556;9.342;2022-09-03T11:05:33;3.65;;;2.85;;
21743;SDS011;11034;48.556;9.342;2022-09-03T11:08:20;3.40;;;2.70;;
21743;SDS011;11034;48.556;9.342;2022-09-03T11:10:53;3.08;;;2.78;;
21743;SDS011;11034;48.556;9.342;2022-09-03T11:13:26;3.92;;;2.88;;
21743;SDS011;11034;48.556;9.342;2022-09-03T11:16:02;3.92;;;2.90;;
21743;SDS011;11034;48.556;9.342;2022-09-03T11:18:40;3.70;;;2.53;;
21743;SDS011;11034;48.556;9.342;2022-09-03T11:21:12;3.95;;;2.80;;
21743;SDS011;11034;48.556;9.342;2022-09-03T11:23:43;3.30;;;3.00;;
21743;SDS011;11034;48.556;9.342;2022-09-03T11:26:21;3.35;;;2.70;;
21743;SDS011;11034;48.556;9.342;2022-09-03T11:28:54;3.03;;;2.72;;
21743;SDS011;11034;48.556;9.342;2022-09-03T11:31:30;5.22;;;2.92;;
21743;SDS011;11034;48.556;9.342;2022-09-03T11:34:07;3.40;;;3.10;;
21743;SDS011;11034;48.556;9.342;2022-09-03T11:37:05;3.17;;;2.90;;
21743;SDS011;11034;48.556;9.342;2022-09-03T11:39:43;4.50;;;2.80;;
21743;SDS011;11034;48.556;9.342;2022-09-03T11:42:32;2.75;;;2.55;;
21743;SDS011;11034;48.556;9.342;2022-09-03T11:45:19;2.97;;;2.70;;
21743;SDS011;11034;48.556;9.342;2022-09-03T11:47:50;3.28;;;2.58;;
21743;SDS011;11034;48.556;9.342;2022-09-03T11:50:20;3.42;;;3.13;;
21743;SDS011;11034;48.556;9.342;2022-09-03T11:52:52;5.72;;;3.38;;
21743;SDS011;11034;48.556;9.342;2022-09-03T11:55:30;5.40;;;3.78;;
21743;SDS011;11034;48.556;9.342;2022-09-03T11:58:16;4.95;;;3.80;;
21743;SDS011;11034;48.556;9.342;2022-09-03T12:23:44;3.17;;;1.20;;
21743;SDS011;11034;48.556;9.342;2022-09-03T12:26:15;2.13;;;1.23;;
21743;SDS011;11034;48.556;9.342;2022-09-03T12:28:51;4.65;;;1.10;;
21743;SDS011;11034;48.556;9.342;2022-09-03T12:31:42;1.20;;;0.90;;
21743;SDS011;11034;48.556;9.342;2022-09-03T12:34:19;1.88;;;1.38;;
21743;SDS011;11034;48.556;9.342;2022-09-03T12:36:54;4.85;;;1.48;;
21743;SDS011;11034;48.556;9.342;2022-09-03T12:39:27;1.60;;;1.40;;
21743;SDS011;11034;48.556;9.342;2022-09-03T12:42:24;1.45;;;1.10;;
21743;SDS011;11034;48.556;9.342;2022-09-03T12:45:04;1.65;;;0.90;;
21743;SDS011;11034;48.556;9.342;2022-09-03T12:47:38;2.92;;;0.90;;
21743;SDS011;11034;48.556;9.342;2022-09-03T12:50:15;2.47;;;1.10;;
21743;SDS011;11034;48.556;9.342;2022-09-03T12:52:47;2.78;;;1.10;;
21743;SDS011;11034;48.556;9.342;2022-09-03T12:55:23;0.90;;;0.82;;
21743;SDS011;11034;48.556;9.342;2022-09-03T12:57:56;1.13;;;0.80;;
21743;SDS011;11034;48.556;9.342;2022-09-03T13:00:36;1.13;;;1.02;;
21743;SDS011;11034;48.556;9.342;2022-09-03T13:03:15;1.20;;;1.10;;
21743;SDS011;11034;48.556;9.342;2022-09-03T13:05:51;0.75;;;0.75;;
21743;SDS011;11034;48.556;9.342;2022-09-03T13:08:30;1.73;;;1.08;;
21743;SDS011;11034;48.556;9.342;2022-09-03T13:11:03;1.85;;;1.10;;
21743;SDS011;11034;48.556;9.342;2022-09-03T13:13:33;2.40;;;1.00;;
21743;SDS011;11034;48.556;9.342;2022-09-03T13:16:16;0.75;;;0.75;;
21743;SDS011;11034;48.556;9.342;2022-09-03T13:19:09;0.82;;;0.60;;
21743;SDS011;11034;48.556;9.342;2022-09-03T13:21:47;1.35;;;0.95;;
21743;SDS011;11034;48.556;9.342;2022-09-03T13:24:38;1.20;;;0.80;;
21743;SDS011;11034;48.556;9.342;2022-09-03T13:27:19;1.88;;;0.80;;
21743;SDS011;11034;48.556;9.342;2022-09-03T13:30:00;1.10;;;0.90;;
21743;SDS011;11034;48.556;9.342;2022-09-03T13:33:06;1.50;;;1.17;;
21743;SDS011;11034;48.556;9.342;2022-09-03T13:35:46;3.50;;;0.98;;
21743;SDS011;11034;48.556;9.342;2022-09-03T13:38:24;2.00;;;0.82;;
21743;SDS011;11034;48.556;9.342;2022-09-03T13:41:08;11.70;;;1.60;;
21743;SDS011;11034;48.556;9.342;2022-09-03T13:43:46;0.85;;;0.80;;
21743;SDS011;11034;48.556;9.342;2022-09-03T13:46:28;1.15;;;1.05;;
21743;SDS011;11034;48.556;9.342;2022-09-03T13:49:29;1.17;;;0.90;;
21743;SDS011;11034;48.556;9.342;2022-09-03T13:52:46;1.65;;;0.68;;
21743;SDS011;11034;48.556;9.342;2022-09-03T13:55:30;9.98;;;1.42;;
21743;SDS011;11034;48.556;9.342;2022-09-03T13:58:23;8.90;;;1.35;;
21743;SDS011;11034;48.556;9.342;2022-09-03T14:01:03;0.90;;;0.70;;
21743;SDS011;11034;48.556;9.342;2022-09-03T14:03:42;2.05;;;0.80;;
21743;SDS011;11034;48.556;9.342;2022-09-03T14:09:13;1.50;;;0.90;;
21743;SDS011;11034;48.556;9.342;2022-09-03T14:11:56;0.85;;;0.80;;
21743;SDS011;11034;48.556;9.342;2022-09-03T14:14:40;3.25;;;0.80;;
21743;SDS011;11034;48.556;9.342;2022-09-03T14:17:21;3.30;;;1.27;;
21743;SDS011;11034;48.556;9.342;2022-09-03T14:19:59;0.90;;;0.80;;
21743;SDS011;11034;48.556;9.342;2022-09-03T14:22:33;2.92;;;1.58;;
21743;SDS011;11034;48.556;9.342;2022-09-03T14:25:15;1.23;;;0.80;;
21743;SDS011;11034;48.556;9.342;2022-09-03T14:27:44;2.53;;;1.00;;
21743;SDS011;11034;48.556;9.342;2022-09-03T14:30:30;6.53;;;1.65;;
21743;SDS011;11034;48.556;9.342;2022-09-03T14:33:48;2.05;;;0.88;;
21743;SDS011;11034;48.556;9.342;2022-09-03T14:36:41;3.70;;;0.82;;
21743;SDS011;11034;48.556;9.342;2022-09-03T14:40:01;1.40;;;0.70;;
21743;SDS011;11034;48.556;9.342;2022-09-03T14:43:56;1.50;;;1.33;;
21743;SDS011;11034;48.556;9.342;2022-09-03T14:47:01;0.60;;;0.57;;
21743;SDS011;11034;48.556;9.342;2022-09-03T14:50:10;0.88;;;0.68;;
21743;SDS011;11034;48.556;9.342;2022-09-03T14:53:12;2.22;;;0.70;;
21743;SDS011;11034;48.556;9.342;2022-09-03T14:56:15;0.60;;;0.60;;
21743;SDS011;11034;48.556;9.342;2022-09-03T15:02:11;3.38;;;2.83;;
21743;SDS011;11034;48.556;9.342;2022-09-03T15:04:59;0.93;;;0.80;;
21743;SDS011;11034;48.556;9.342;2022-09-03T15:07:40;0.55;;;0.52;;
21743;SDS011;11034;48.556;9.342;2022-09-03T15:10:17;1.15;;;0.60;;
21743;SDS011;11034;48.556;9.342;2022-09-03T15:13:00;0.60;;;0.60;;
21743;SDS011;11034;48.556;9.342;2022-09-03T15:15:51;1.20;;;0.73;;
21743;SDS011;11034;48.556;9.342;2022-09-03T15:18:41;1.75;;;0.80;;
21743;SDS011;11034;48.556;9.342;2022-09-03T15:21:44;1.33;;;1.23;;
21743;SDS011;11034;48.556;9.342;2022-09-03T15:28:22;2.45;;;0.70;;
21743;SDS011;11034;48.556;9.342;2022-09-03T15:31:08;1.02;;;0.90;;
21743;SDS011;11034;48.556;9.342;2022-09-03T15:33:51;0.93;;;0.80;;
21743;SDS011;11034;48.556;9.342;2022-09-03T15:36:33;0.95;;;0.82;;
21743;SDS011;11034;48.556;9.342;2022-09-03T15:39:15;1.60;;;0.70;;
21743;SDS011;11034;48.556;9.342;2022-09-03T15:41:49;1.90;;;0.95;;
21743;SDS011;11034;48.556;9.342;2022-09-03T15:44:27;1.20;;;0.98;;
21743;SDS011;11034;48.556;9.342;2022-09-03T15:47:41;0.93;;;0.80;;
21743;SDS011;11034;48.556;9.342;2022-09-03T15:50:36;3.28;;;1.23;;
21743;SDS011;11034;48.556;9.342;2022-09-03T15:53:28;1.00;;;0.90;;
21743;SDS011;11034;48.556;9.342;2022-09-03T15:56:15;1.15;;;1.05;;
21743;SDS011;11034;48.556;9.342;2022-09-03T15:59:14;2.38;;;2.17;;
21743;SDS011;11034;48.556;9.342;2022-09-03T16:02:12;1.63;;;1.08;;
21743;SDS011;11034;48.556;9.342;2022-09-03T16:05:27;1.77;;;0.93;;
21743;SDS011;11034;48.556;9.342;2022-09-03T16:11:54;1.52;;;1.05;;
21743;SDS011;11034;48.556;9.342;2022-09-03T16:15:02;2.55;;;1.02;;
21743;SDS011;11034;48.556;9.342;2022-09-03T16:18:25;1.20;;;1.00;;
21743;SDS011;11034;48.556;9.342;2022-09-03T16:21:22;2.20;;;1.00;;
21743;SDS011;11034;48.556;9.342;2022-09-03T16:25:08;3.00;;;1.30;;
21743;SDS011;11034;48.556;9.342;2022-09-03T16:28:40;1.67;;;1.10;;
21743;SDS011;11034;48.556;9.342;2022-09-03T16:35:57;1.40;;;1.10;;
21743;SDS011;11034;48.556;9.342;2022-09-03T16:39:06;3.65;;;1.40;;
21743;SDS011;11034;48.556;9.342;2022-09-03T16:46:16;2.33;;;1.25;;
21743;SDS011;11034;48.556;9.342;2022-09-03T16:49:53;3.60;;;1.40;;
21743;SDS011;11034;48.556;9.342;2022-09-03T17:01:25;1.73;;;1.20;;
21743;SDS011;11034;48.556;9.342;2022-09-03T17:08:52;1.90;;;1.25;;
21743;SDS011;11034;48.556;9.342;2022-09-03T17:25:59;2.58;;;1.40;;
21743;SDS011;11034;48.556;9.342;2022-09-03T18:04:40;7.70;;;1.88;;
21743;SDS011;11034;48.556;9.342;2022-09-03T18:08:19;3.33;;;1.42;;
21743;SDS011;11034;48.556;9.342;2022-09-03T18:23:13;3.45;;;1.73;;
21743;SDS011;11034;48.556;9.342;2022-09-03T18:26:41;3.78;;;1.65;;
21743;SDS011;11034;48.556;9.342;2022-09-03T18:30:23;2.35;;;1.55;;
21743;SDS011;11034;48.556;9.342;2022-09-03T18:41:14;3.38;;;1.63;;
21743;SDS011;11034;48.556;9.342;2022-09-03T18:44:50;3.85;;;1.40;;
21743;SDS011;11034;48.556;9.342;2022-09-03T18:48:20;1.70;;;1.45;;
21743;SDS011;11034;48.556;9.342;2022-09-03T18:51:43;1.83;;;1.48;;
21743;SDS011;11034;48.556;9.342;2022-09-03T18:54:43;1.67;;;1.40;;
21743;SDS011;11034;48.556;9.342;2022-09-03T18:57:39;3.60;;;1.60;;
21743;SDS011;11034;48.556;9.342;2022-09-03T19:00:30;1.70;;;1.45;;
21743;SDS011;11034;48.556;9.342;2022-09-03T19:03:28;2.75;;;1.63;;
21743;SDS011;11034;48.556;9.342;2022-09-03T19:06:30;2.53;;;1.60;;
21743;SDS011;11034;48.556;9.342;2022-09-03T19:09:34;1.40;;;1.30;;
21743;SDS011;11034;48.556;9.342;2022-09-03T19:12:41;1.65;;;1.50;;
21743;SDS011;11034;48.556;9.342;2022-09-03T19:15:42;1.70;;;1.60;;
21743;SDS011;11034;48.556;9.342;2022-09-03T19:18:44;1.85;;;1.70;;
21743;SDS011;11034;48.556;9.342;2022-09-03T19:21:47;4.13;;;1.90;;
21743;SDS011;11034;48.556;9.342;2022-09-03T19:24:37;1.73;;;1.50;;
21743;SDS011;11034;48.556;9.342;2022-09-03T19:27:24;3.80;;;1.63;;
21743;SDS011;11034;48.556;9.342;2022-09-03T19:30:26;4.68;;;1.50;;
21743;SDS011;11034;48.556;9.342;2022-09-03T19:33:20;1.40;;;1.30;;
21743;SDS011;11034;48.556;9.342;2022-09-03T19:36:16;2.50;;;1.50;;
21743;SDS011;11034;48.556;9.342;2022-09-03T19:39:17;2.33;;;1.42;;
21743;SDS011;11034;48.556;9.342;2022-09-03T19:42:17;1.80;;;1.50;;
21743;SDS011;11034;48.556;9.342;2022-09-03T19:45:14;3.65;;;1.50;;
21743;SDS011;11034;48.556;9.342;2022-09-03T19:48:10;1.88;;;1.65;;
21743;SDS011;11034;48.556;9.342;2022-09-03T19:51:04;3.42;;;1.40;;
21743;SDS011;11034;48.556;9.342;2022-09-03T19:53:54;4.10;;;1.50;;
21743;SDS011;11034;48.556;9.342;2022-09-03T19:56:43;2.80;;;1.63;;
21743;SDS011;11034;48.556;9.342;2022-09-03T19:59:32;1.70;;;1.40;;
21743;SDS011;11034;48.556;9.342;2022-09-03T20:02:23;1.73;;;1.40;;
21743;SDS011;11034;48.556;9.342;2022-09-03T20:05:13;4.43;;;1.60;;
21743;SDS011;11034;48.556;9.342;2022-09-03T20:08:02;1.52;;;1.42;;
21743;SDS011;11034;48.556;9.342;2022-09-03T20:10:49;2.47;;;1.67;;
21743;SDS011;11034;48.556;9.342;2022-09-03T20:13:22;18.70;;;3.60;;
21743;SDS011;11034;48.556;9.342;2022-09-03T20:15:52;4.63;;;1.70;;
21743;SDS011;11034;48.556;9.342;2022-09-03T20:18:33;5.25;;;1.90;;
21743;SDS011;11034;48.556;9.342;2022-09-03T20:21:11;60.47;;;4.28;;
21743;SDS011;11034;48.556;9.342;2022-09-03T20:23:53;11.13;;;2.60;;
21743;SDS011;11034;48.556;9.342;2022-09-03T20:26:36;6.50;;;1.83;;
21743;SDS011;11034;48.556;9.342;2022-09-03T20:29:19;5.25;;;2.10;;
21743;SDS011;11034;48.556;9.342;2022-09-03T20:32:02;6.07;;;2.17;;
21743;SDS011;11034;48.556;9.342;2022-09-03T20:34:40;1.45;;;1.35;;
21743;SDS011;11034;48.556;9.342;2022-09-03T20:37:18;5.13;;;1.60;;
21743;SDS011;11034;48.556;9.342;2022-09-03T20:40:07;1.65;;;1.30;;
21743;SDS011;11034;48.556;9.342;2022-09-03T20:42:51;6.40;;;1.88;;
21743;SDS011;11034;48.556;9.342;2022-09-03T20:45:30;2.70;;;1.30;;
21743;SDS011;11034;48.556;9.342;2022-09-03T20:48:08;1.70;;;1.60;;
21743;SDS011;11034;48.556;9.342;2022-09-03T20:50:51;2.33;;;1.80;;
21743;SDS011;11034;48.556;9.342;2022-09-03T20:53:29;1.80;;;1.70;;
21743;SDS011;11034;48.556;9.342;2022-09-03T20:56:13;4.50;;;1.75;;
21743;SDS011;11034;48.556;9.342;2022-09-03T20:58:47;5.18;;;1.90;;
21743;SDS011;11034;48.556;9.342;2022-09-03T21:01:26;2.15;;;1.77;;
21743;SDS011;11034;48.556;9.342;2022-09-03T21:04:03;3.38;;;1.92;;
21743;SDS011;11034;48.556;9.342;2022-09-03T21:06:46;3.28;;;1.80;;
21743;SDS011;11034;48.556;9.342;2022-09-03T21:09:26;3.92;;;1.90;;
21743;SDS011;11034;48.556;9.342;2022-09-03T21:12:02;3.00;;;2.05;;
21743;SDS011;11034;48.556;9.342;2022-09-03T21:14:37;2.47;;;1.63;;
21743;SDS011;11034;48.556;9.342;2022-09-03T21:17:13;3.40;;;1.98;;
21743;SDS011;11034;48.556;9.342;2022-09-03T21:19:57;3.50;;;2.00;;
21743;SDS011;11034;48.556;9.342;2022-09-03T21:22:32;3.25;;;1.90;;
21743;SDS011;11034;48.556;9.342;2022-09-03T21:25:12;2.08;;;1.80;;
21743;SDS011;11034;48.556;9.342;2022-09-03T21:27:45;2.40;;;1.70;;
21743;SDS011;11034;48.556;9.342;2022-09-03T21:30:17;4.78;;;1.70;;
21743;SDS011;11034;48.556;9.342;2022-09-03T21:32:48;2.72;;;1.40;;
21743;SDS011;11034;48.556;9.342;2022-09-03T21:35:20;4.05;;;1.80;;
21743;SDS011;11034;48.556;9.342;2022-09-03T21:37:58;2.85;;;1.70;;
21743;SDS011;11034;48.556;9.342;2022-09-03T21:40:33;1.63;;;1.52;;
21743;SDS011;11034;48.556;9.342;2022-09-03T21:43:13;4.07;;;1.40;;
21743;SDS011;11034;48.556;9.342;2022-09-03T21:45:46;4.00;;;1.73;;
21743;SDS011;11034;48.556;9.342;2022-09-03T21:48:20;1.80;;;1.40;;
21743;SDS011;11034;48.556;9.342;2022-09-03T21:50:53;1.92;;;1.50;;
21743;SDS011;11034;48.556;9.342;2022-09-03T21:53:26;2.65;;;1.60;;
21743;SDS011;11034;48.556;9.342;2022-09-03T21:56:17;5.93;;;1.50;;
21743;SDS011;11034;48.556;9.342;2022-09-03T21:59:02;2.10;;;1.65;;
21743;SDS011;11034;48.556;9.342;2022-09-03T22:01:39;2.97;;;1.50;;
21743;SDS011;11034;48.556;9.342;2022-09-03T22:04:25;2.22;;;1.50;;
21743;SDS011;11034;48.556;9.342;2022-09-03T22:06:55;2.95;;;1.65;;
21743;SDS011;11034;48.556;9.342;2022-09-03T22:09:34;2.95;;;1.65;;
21743;SDS011;11034;48.556;9.342;2022-09-03T22:12:10;7.68;;;2.05;;
21743;SDS011;11034;48.556;9.342;2022-09-03T22:14:43;2.00;;;1.80;;
21743;SDS011;11034;48.556;9.342;2022-09-03T22:17:20;3.03;;;1.58;;
21743;SDS011;11034;48.556;9.342;2022-09-03T22:19:54;3.95;;;1.73;;
21743;SDS011;11034;48.556;9.342;2022-09-03T22:22:24;4.53;;;1.80;;
21743;SDS011;11034;48.556;9.342;2022-09-03T22:25:02;1.60;;;1.50;;
21743;SDS011;11034;48.556;9.342;2022-09-03T22:27:37;3.25;;;1.80;;
21743;SDS011;11034;48.556;9.342;2022-09-03T22:30:14;2.83;;;1.80;;
21743;SDS011;11034;48.556;9.342;2022-09-03T22:32:49;2.10;;;1.63;;
21743;SDS011;11034;48.556;9.342;2022-09-03T22:35:43;2.13;;;1.83;;
21743;SDS011;11034;48.556;9.342;2022-09-03T22:38:28;4.60;;;2.10;;
21743;SDS011;11034;48.556;9.342;2022-09-03T22:41:15;4.35;;;1.80;;
21743;SDS011;11034;48.556;9.342;2022-09-03T22:43:59;2.83;;;2.00;;
21743;SDS011;11034;48.556;9.342;2022-09-03T22:46:36;2.95;;;1.90;;
21743;SDS011;11034;48.556;9.342;2022-09-03T22:49:13;2.88;;;1.98;;
21743;SDS011;11034;48.556;9.342;2022-09-03T22:51:53;4.45;;;2.20;;
21743;SDS011;11034;48.556;9.342;2022-09-03T22:54:41;2.97;;;2.00;;
21743;SDS011;11034;48.556;9.342;2022-09-03T22:57:18;6.07;;;2.08;;
21743;SDS011;11034;48.556;9.342;2022-09-03T22:59:55;6.95;;;2.20;;
21743;SDS011;11034;48.556;9.342;2022-09-03T23:02:29;2.90;;;2.03;;
21743;SDS011;11034;48.556;9.342;2022-09-03T23:05:00;2.58;;;2.17;;
21743;SDS011;11034;48.556;9.342;2022-09-03T23:07:32;3.72;;;2.30;;
21743;SDS011;11034;48.556;9.342;2022-09-03T23:10:09;6.72;;;2.40;;
21743;SDS011;11034;48.556;9.342;2022-09-03T23:12:51;3.78;;;2.05;;
21743;SDS011;11034;48.556;9.342;2022-09-03T23:15:34;6.45;;;2.80;;
21743;SDS011;11034;48.556;9.342;2022-09-03T23:18:05;4.95;;;2.50;;
21743;SDS011;11034;48.556;9.342;2022-09-03T23:20:37;4.18;;;3.70;;
21743;SDS011;11034;48.556;9.342;2022-09-03T23:23:08;55.17;;;7.50;;
21743;SDS011;11034;48.556;9.342;2022-09-03T23:25:42;10.98;;;7.97;;
21743;SDS011;11034;48.556;9.342;2022-09-03T23:28:17;19.42;;;9.40;;
21743;SDS011;11034;48.556;9.342;2022-09-03T23:30:50;12.93;;;8.43;;
21743;SDS011;11034;48.556;9.342;2022-09-03T23:33:21;21.25;;;8.45;;
21743;SDS011;11034;48.556;9.342;2022-09-03T23:35:51;24.55;;;9.65;;
21743;SDS011;11034;48.556;9.342;2022-09-03T23:38:27;33.95;;;11.20;;
21743;SDS011;11034;48.556;9.342;2022-09-03T23:41:03;44.88;;;11.15;;
21743;SDS011;11034;48.556;9.342;2022-09-03T23:43:43;13.63;;;9.38;;
21743;SDS011;11034;48.556;9.342;2022-09-03T23:46:35;14.52;;;7.72;;
21743;SDS011;11034;48.556;9.342;2022-09-03T23:49:14;11.50;;;7.60;;
21743;SDS011;11034;48.556;9.342;2022-09-03T23:52:01;13.52;;;6.90;;
21743;SDS011;11034;48.556;9.342;2022-09-03T23:54:43;9.30;;;6.47;;
21743;SDS011;11034;48.556;9.342;2022-09-03T23:57:17;8.15;;;6.18;;
